Time;durP1;ratioP1;P1;durP2;ratioP2;P2;SDS_P1;SDS_P2;PMS_P1;PMS_P2;Temp;Humidity;BMP_temperature;BMP_pressure;BME280_temperature;BME280_humidity;BME280_pressure;Samples;Min_cycle;Max_cycle;Signal;HPM_P1;HPM_P2
2022/08/21 00:00:19;;;;;;;12.63;2.75;;;17.20;99.90;;;;;;6276427;22;20031;-91
2022/08/21 00:02:56;;;;;;;9.95;2.65;;;17.20;99.90;;;;;;6303960;22;20065;-91
2022/08/21 00:05:23;;;;;;;12.57;3.15;;;17.20;99.90;;;;;;6275574;22;20027;-91
2022/08/21 00:07:49;;;;;;;10.82;2.78;;;17.20;99.90;;;;;;6303390;22;20493;-85
2022/08/21 00:10:16;;;;;;;13.55;3.05;;;17.10;99.90;;;;;;6303942;22;20317;-91
2022/08/21 00:12:43;;;;;;;16.02;3.17;;;17.00;99.90;;;;;;6302914;22;20026;-91
2022/08/21 00:15:11;;;;;;;11.87;2.80;;;17.00;99.90;;;;;;6302169;22;20026;-85
2022/08/21 00:17:37;;;;;;;15.15;2.95;;;17.00;99.90;;;;;;6302879;22;20005;-92
2022/08/21 00:20:08;;;;;;;14.20;2.83;;;17.00;99.90;;;;;;6303031;22;20074;-85
2022/08/21 00:22:34;;;;;;;10.30;2.75;;;17.00;99.90;;;;;;6275455;22;20007;-92
2022/08/21 00:25:01;;;;;;;10.43;2.80;;;16.90;99.90;;;;;;6302770;22;20000;-84
2022/08/21 00:27:26;;;;;;;14.90;2.70;;;16.90;99.90;;;;;;6275385;22;20003;-91
2022/08/21 00:29:53;;;;;;;9.35;2.55;;;16.90;99.90;;;;;;6303006;22;20017;-85
2022/08/21 00:32:26;;;;;;;17.25;3.10;;;16.90;99.90;;;;;;6303386;22;20003;-86
2022/08/21 00:34:52;;;;;;;12.27;2.58;;;17.20;99.90;;;;;;6302589;22;20076;-84
2022/08/21 00:37:18;;;;;;;14.90;3.00;;;16.80;99.90;;;;;;6276455;22;20049;-85
2022/08/21 00:39:44;;;;;;;16.42;2.60;;;16.80;99.90;;;;;;6302647;22;20003;-85
2022/08/21 00:42:14;;;;;;;18.85;2.83;;;16.80;99.90;;;;;;6275854;22;20856;-84
2022/08/21 00:44:44;;;;;;;12.07;2.40;;;16.70;99.90;;;;;;6275639;22;20000;-91
2022/08/21 00:47:10;;;;;;;13.55;2.80;;;16.80;99.90;;;;;;6302925;22;20003;-85
2022/08/21 00:49:36;;;;;;;12.77;2.60;;;16.80;99.90;;;;;;6276760;22;20402;-92
2022/08/21 00:52:05;;;;;;;10.85;2.50;;;16.80;99.90;;;;;;6277515;22;20480;-85
2022/08/21 00:54:31;;;;;;;10.88;2.38;;;16.70;99.90;;;;;;6304486;22;20351;-85
2022/08/21 00:57:02;;;;;;;14.02;2.67;;;16.70;99.90;;;;;;6304807;22;20066;-91
2022/08/21 00:59:32;;;;;;;12.18;2.58;;;16.70;99.90;;;;;;6304829;22;20078;-88
2022/08/21 01:01:58;;;;;;;16.90;3.35;;;16.70;99.90;;;;;;6304441;22;20007;-88
2022/08/21 01:04:23;;;;;;;12.45;2.50;;;16.60;99.90;;;;;;6251846;22;20003;-91
2022/08/21 01:06:51;;;;;;;14.10;2.63;;;16.60;99.90;;;;;;6305105;22;19999;-86
2022/08/21 01:09:18;;;;;;;9.38;2.78;;;16.60;99.90;;;;;;6277469;22;20090;-85
2022/08/21 01:11:45;;;;;;;13.20;2.75;;;16.50;99.90;;;;;;6305153;22;20070;-91
2022/08/21 01:14:12;;;;;;;12.30;2.75;;;16.50;99.90;;;;;;6304679;22;20010;-90
2022/08/21 01:16:43;;;;;;;10.20;2.30;;;16.50;99.90;;;;;;6305223;22;20003;-86
2022/08/21 01:19:10;;;;;;;8.43;2.55;;;16.50;99.90;;;;;;6316025;22;20010;-85
2022/08/21 01:21:36;;;;;;;8.77;2.47;;;16.50;99.90;;;;;;6277955;22;20031;-91
2022/08/21 01:24:03;;;;;;;11.40;2.42;;;16.60;99.90;;;;;;6305002;22;20006;-85
2022/08/21 01:26:32;;;;;;;13.98;2.60;;;16.50;99.90;;;;;;6304252;22;20026;-85
2022/08/21 01:29:33;;;;;;;13.70;2.75;;;16.60;99.90;;;;;;6276908;22;20448;-84
2022/08/21 01:32:04;;;;;;;9.55;2.53;;;16.50;99.90;;;;;;6269357;22;20432;-84
2022/08/21 01:34:29;;;;;;;8.90;2.55;;;16.50;99.90;;;;;;6304935;22;20466;-85
2022/08/21 01:36:55;;;;;;;8.13;2.38;;;16.50;99.90;;;;;;6304517;22;19995;-89
2022/08/21 01:39:21;;;;;;;10.20;2.70;;;16.40;99.90;;;;;;6305546;22;20040;-92
2022/08/21 01:41:46;;;;;;;14.32;3.58;;;16.40;99.90;;;;;;6304278;22;20034;-93
2022/08/21 01:44:12;;;;;;;13.35;2.70;;;16.40;99.90;;;;;;6304518;22;20029;-84
2022/08/21 01:46:38;;;;;;;11.98;2.97;;;16.40;99.90;;;;;;6304008;22;20343;-87
2022/08/21 01:49:04;;;;;;;12.75;2.58;;;16.40;99.90;;;;;;6276564;22;20022;-84
2022/08/21 01:51:30;;;;;;;13.30;2.80;;;16.40;99.90;;;;;;6304228;22;19999;-91
2022/08/21 01:53:56;;;;;;;11.63;2.33;;;16.40;99.90;;;;;;6304331;22;20025;-85
2022/08/21 01:56:22;;;;;;;7.95;2.22;;;16.40;99.90;;;;;;6304951;22;19995;-85
2022/08/21 01:58:48;;;;;;;12.10;2.83;;;;;;;;;;6276667;22;20015;-89
2022/08/21 02:01:14;;;;;;;9.55;2.40;;;16.40;99.90;;;;;;6302727;22;20336;-91
2022/08/21 02:03:40;;;;;;;6.20;2.10;;;16.40;99.90;;;;;;6277234;22;20003;-85
2022/08/21 02:06:07;;;;;;;12.15;2.50;;;16.30;99.90;;;;;;6277365;22;20004;-92
2022/08/21 02:08:33;;;;;;;12.35;2.70;;;16.30;99.90;;;;;;6304639;22;20007;-91
2022/08/21 02:10:59;;;;;;;11.77;2.60;;;16.30;99.90;;;;;;6304207;22;20463;-84
2022/08/21 02:13:26;;;;;;;11.60;2.70;;;16.30;99.90;;;;;;6304559;22;20000;-87
2022/08/21 02:15:51;;;;;;;15.60;2.67;;;16.40;99.90;;;;;;6304658;22;20002;-89
2022/08/21 02:18:18;;;;;;;10.43;2.70;;;16.30;99.90;;;;;;6304320;22;20004;-86
2022/08/21 02:20:47;;;;;;;16.48;2.65;;;16.30;99.90;;;;;;6303667;22;19996;-84
2022/08/21 02:23:14;;;;;;;10.77;2.60;;;16.20;99.90;;;;;;6303877;22;20011;-84
2022/08/21 02:25:40;;;;;;;7.13;2.22;;;16.10;99.90;;;;;;6303831;22;20349;-84
2022/08/21 02:28:10;;;;;;;10.63;2.22;;;16.10;99.90;;;;;;6303017;22;20313;-86
2022/08/21 02:30:39;;;;;;;9.85;2.72;;;16.00;99.90;;;;;;6302991;22;20079;-85
2022/08/21 02:33:09;;;;;;;14.40;2.53;;;16.00;99.90;;;;;;6303403;22;20086;-89
2022/08/21 02:35:36;;;;;;;10.88;2.40;;;16.00;99.90;;;;;;6304246;22;20000;-86
2022/08/21 02:38:05;;;;;;;14.88;2.72;;;16.00;99.90;;;;;;6303789;22;19999;-85
2022/08/21 02:40:35;;;;;;;6.57;2.35;;;15.90;99.90;;;;;;6303341;22;19999;-86
2022/08/21 02:43:02;;;;;;;13.32;3.05;;;15.80;99.90;;;;;;6303386;22;20049;-85
2022/08/21 02:45:28;;;;;;;10.77;2.50;;;;;;;;;;6303701;22;19999;-86
2022/08/21 02:48:01;;;;;;;12.00;2.45;;;15.80;99.90;;;;;;6304251;22;20057;-88
2022/08/21 02:50:33;;;;;;;10.75;2.47;;;15.80;99.90;;;;;;6304313;22;20447;-86
2022/08/21 02:52:59;;;;;;;11.10;2.60;;;15.90;99.90;;;;;;6303832;22;20003;-86
2022/08/21 02:55:28;;;;;;;10.15;2.47;;;15.90;99.90;;;;;;6304328;22;20331;-87
2022/08/21 02:57:55;;;;;;;15.00;3.42;;;15.90;99.90;;;;;;6302973;22;20026;-87
2022/08/21 03:00:24;;;;;;;9.93;2.35;;;15.90;99.90;;;;;;6304182;22;20083;-91
2022/08/21 03:02:49;;;;;;;9.85;2.72;;;15.90;99.90;;;;;;6303545;22;20007;-86
2022/08/21 03:05:17;;;;;;;10.50;2.55;;;15.90;99.90;;;;;;6278047;22;20072;-85
2022/08/21 03:07:44;;;;;;;7.80;2.53;;;15.90;99.90;;;;;;6304029;22;20443;-91
2022/08/21 03:10:10;;;;;;;12.87;2.77;;;15.90;99.90;;;;;;6276993;22;20008;-88
2022/08/21 03:12:36;;;;;;;10.95;2.90;;;15.90;99.90;;;;;;6303832;22;20233;-92
2022/08/21 03:15:08;;;;;;;14.60;2.90;;;15.90;99.90;;;;;;6302805;22;20003;-91
2022/08/21 03:17:34;;;;;;;11.00;2.97;;;15.90;99.90;;;;;;6302887;22;19999;-90
2022/08/21 03:20:00;;;;;;;16.77;3.40;;;15.90;99.90;;;;;;6303711;22;20023;-86
2022/08/21 03:22:27;;;;;;;14.07;2.78;;;15.90;99.90;;;;;;6304145;22;20021;-88
2022/08/21 03:24:53;;;;;;;10.27;2.80;;;;;;;;;;6303202;22;20004;-85
2022/08/21 03:27:19;;;;;;;10.07;2.45;;;15.80;99.90;;;;;;6303189;22;20335;-87
2022/08/21 03:29:45;;;;;;;13.75;3.25;;;15.80;99.90;;;;;;6275042;22;20363;-86
2022/08/21 03:32:11;;;;;;;14.50;2.80;;;15.90;99.90;;;;;;6302480;22;20435;-86
2022/08/21 03:34:38;;;;;;;13.05;2.80;;;15.80;99.90;;;;;;6302516;22;20031;-86
2022/08/21 03:37:06;;;;;;;7.97;2.40;;;15.80;99.90;;;;;;6303066;22;20006;-86
2022/08/21 03:39:32;;;;;;;10.23;2.70;;;15.90;99.90;;;;;;6303104;22;20010;-86
2022/08/21 03:41:59;;;;;;;12.10;2.75;;;15.80;99.90;;;;;;6303984;22;20045;-86
2022/08/21 03:44:28;;;;;;;10.02;2.58;;;15.90;99.90;;;;;;6275703;22;20003;-86
2022/08/21 03:46:54;;;;;;;12.25;2.47;;;16.00;99.90;;;;;;6302893;22;20439;-85
2022/08/21 03:49:21;;;;;;;11.18;2.70;;;15.90;99.90;;;;;;6275149;22;20468;-85
2022/08/21 03:51:46;;;;;;;11.57;2.40;;;15.90;99.90;;;;;;6302043;22;20006;-88
2022/08/21 03:54:12;;;;;;;12.98;3.03;;;15.90;99.90;;;;;;6303025;22;20425;-92
2022/08/21 03:56:39;;;;;;;7.97;2.38;;;15.90;99.90;;;;;;6276172;22;20030;-89
2022/08/21 03:59:05;;;;;;;14.45;2.83;;;15.90;99.90;;;;;;6303208;22;20006;-86
2022/08/21 04:01:32;;;;;;;9.45;2.35;;;15.90;99.90;;;;;;6276227;22;20082;-85
2022/08/21 04:03:58;;;;;;;12.90;2.58;;;;;;;;;;6305453;22;20051;-85
2022/08/21 04:06:26;;;;;;;11.82;2.38;;;;;;;;;;6317518;22;19991;-84
2022/08/21 04:08:52;;;;;;;9.43;2.65;;;15.90;99.90;;;;;;6280892;22;20354;-85
2022/08/21 04:11:18;;;;;;;10.63;2.60;;;15.90;99.90;;;;;;6278320;22;20013;-89
2022/08/21 04:13:45;;;;;;;16.15;2.63;;;15.80;99.90;;;;;;6276250;22;20339;-86
2022/08/21 04:16:11;;;;;;;14.30;3.15;;;15.80;99.90;;;;;;6303069;22;20467;-85
2022/08/21 04:18:37;;;;;;;12.50;2.63;;;15.80;99.90;;;;;;6302296;22;19999;-83
2022/08/21 04:21:03;;;;;;;11.57;2.70;;;15.80;99.90;;;;;;6303230;22;20006;-85
2022/08/21 04:23:29;;;;;;;15.20;2.60;;;;;;;;;;6305449;22;20089;-84
2022/08/21 04:25:56;;;;;;;10.50;2.65;;;15.80;99.90;;;;;;6307542;22;20019;-84
2022/08/21 04:28:26;;;;;;;11.88;2.53;;;15.80;99.90;;;;;;6304958;22;19999;-85
2022/08/21 04:30:54;;;;;;;9.43;2.30;;;15.80;99.90;;;;;;6309744;22;20329;-83
2022/08/21 04:33:21;;;;;;;11.68;2.83;;;15.90;99.90;;;;;;6317471;22;20007;-88
2022/08/21 04:35:51;;;;;;;11.67;2.70;;;15.90;99.90;;;;;;6272565;22;20455;-93
2022/08/21 04:38:19;;;;;;;10.68;2.72;;;15.90;99.90;;;;;;6329890;22;20000;-91
2022/08/21 04:40:45;;;;;;;14.37;2.30;;;15.90;99.90;;;;;;6329700;22;20058;-85
2022/08/21 04:43:11;;;;;;;9.77;2.67;;;15.90;99.90;;;;;;6327400;22;20013;-84
2022/08/21 04:46:00;;;;;;;10.77;2.80;;;15.90;99.90;;;;;;6320259;22;20023;-83
2022/08/21 04:48:26;;;;;;;13.48;2.72;;;15.90;99.90;;;;;;6318182;22;20019;-86
2022/08/21 04:51:26;;;;;;;13.65;2.90;;;15.90;99.90;;;;;;6321419;22;20053;-88
2022/08/21 04:54:16;;;;;;;10.07;2.70;;;15.80;99.90;;;;;;6311877;22;20382;-89
2022/08/21 04:56:59;;;;;;;13.98;2.78;;;15.80;99.90;;;;;;6327454;22;19994;-85
2022/08/21 05:00:01;;;;;;;13.45;2.60;;;15.90;99.90;;;;;;6324120;22;20007;-85
2022/08/21 05:02:58;;;;;;;13.25;2.67;;;15.90;99.90;;;;;;6243996;22;19988;-85
2022/08/21 05:05:27;;;;;;;13.13;2.53;;;15.80;99.90;;;;;;6321916;22;19998;-84
2022/08/21 05:08:15;;;;;;;11.67;2.90;;;15.80;99.90;;;;;;6327998;22;20019;-85
2022/08/21 05:10:44;;;;;;;12.50;2.75;;;15.80;99.90;;;;;;6313983;22;20242;-85
2022/08/21 05:13:12;;;;;;;13.25;2.80;;;15.70;99.90;;;;;;6329440;22;19991;-84
2022/08/21 05:15:39;;;;;;;10.70;2.70;;;15.80;99.90;;;;;;6316958;22;20007;-83
2022/08/21 05:18:14;;;;;;;13.50;2.70;;;15.70;99.90;;;;;;6325045;22;19987;-86
2022/08/21 05:20:44;;;;;;;13.07;2.95;;;15.60;99.90;;;;;;6323583;22;19987;-86
2022/08/21 05:23:29;;;;;;;10.95;2.60;;;15.60;99.90;;;;;;6324805;22;20007;-92
2022/08/21 05:25:55;;;;;;;12.02;2.85;;;15.70;99.90;;;;;;6323952;22;19999;-85
2022/08/21 05:28:23;;;;;;;9.63;2.28;;;15.70;99.90;;;;;;6330168;22;20003;-87
2022/08/21 05:30:57;;;;;;;13.20;2.43;;;15.80;99.90;;;;;;6331530;22;20022;-87
2022/08/21 05:33:23;;;;;;;9.88;2.70;;;15.80;99.90;;;;;;6279906;22;20371;-91
2022/08/21 05:36:00;;;;;;;9.65;2.33;;;15.80;99.90;;;;;;6324034;22;20011;-82
2022/08/21 05:38:28;;;;;;;10.48;3.25;;;15.80;99.90;;;;;;6323294;22;20573;-82
2022/08/21 05:40:57;;;;;;;10.32;2.55;;;15.80;99.90;;;;;;6326954;22;19984;-82
2022/08/21 05:43:23;;;;;;;10.60;2.58;;;15.80;99.90;;;;;;6298218;22;20086;-82
2022/08/21 05:45:56;;;;;;;14.55;3.25;;;15.80;99.90;;;;;;6325871;22;20026;-83
2022/08/21 05:48:24;;;;;;;11.00;2.40;;;15.80;99.90;;;;;;6315212;22;20016;-91
2022/08/21 05:50:52;;;;;;;14.45;2.40;;;15.80;99.90;;;;;;6307686;22;20002;-93
2022/08/21 05:53:19;;;;;;;9.85;2.70;;;15.80;99.90;;;;;;6308437;22;20022;-90
2022/08/21 05:55:46;;;;;;;12.55;2.92;;;15.90;99.90;;;;;;6319223;22;19995;-93
2022/08/21 05:58:13;;;;;;;12.15;2.92;;;15.90;99.90;;;;;;6313653;22;20043;-94
2022/08/21 06:00:39;;;;;;;10.25;2.60;;;15.90;99.90;;;;;;6317043;22;19999;-92
2022/08/21 06:03:16;;;;;;;10.88;3.10;;;15.90;99.90;;;;;;6314515;22;20006;-94
2022/08/21 06:05:42;;;;;;;14.48;2.80;;;16.00;99.90;;;;;;6311965;22;20019;-86
2022/08/21 06:08:09;;;;;;;11.10;3.38;;;16.00;99.90;;;;;;6322209;22;20010;-86
2022/08/21 06:10:34;;;;;;;15.02;2.90;;;16.00;99.90;;;;;;6307638;22;20004;-93
2022/08/21 06:13:00;;;;;;;18.20;3.08;;;16.10;99.90;;;;;;6304471;22;20000;-92
2022/08/21 06:15:26;;;;;;;13.82;3.00;;;16.10;99.90;;;;;;6304672;22;19999;-94
2022/08/21 06:17:53;;;;;;;10.93;2.83;;;16.10;99.90;;;;;;6277832;22;20014;-94
2022/08/21 06:20:19;;;;;;;12.38;3.05;;;16.20;99.90;;;;;;6305276;22;20000;-91
2022/08/21 06:22:45;;;;;;;8.82;2.53;;;;;;;;;;6305012;22;20006;-93
2022/08/21 06:25:11;;;;;;;9.85;2.80;;;16.20;99.90;;;;;;6277974;22;20004;-94
2022/08/21 06:27:37;;;;;;;12.35;3.25;;;16.20;99.90;;;;;;6278728;22;20007;-92
2022/08/21 06:30:05;;;;;;;9.18;2.30;;;16.30;99.90;;;;;;6304260;22;20316;-90
2022/08/21 06:32:31;;;;;;;11.05;2.58;;;16.40;99.90;;;;;;6305747;22;20496;-91
2022/08/21 06:34:56;;;;;;;10.05;2.70;;;16.50;99.90;;;;;;6303932;22;20003;-84
2022/08/21 06:37:22;;;;;;;18.73;3.60;;;16.50;99.90;;;;;;6304214;22;20022;-92
2022/08/21 06:39:48;;;;;;;10.82;2.80;;;16.60;99.90;;;;;;6307644;22;20010;-90
2022/08/21 06:42:17;;;;;;;10.23;2.63;;;16.60;99.90;;;;;;6307791;22;19999;-84
2022/08/21 06:44:43;;;;;;;15.02;3.15;;;16.70;99.90;;;;;;6322342;22;19983;-84
2022/08/21 06:47:09;;;;;;;11.07;2.67;;;16.70;99.90;;;;;;6327068;22;19983;-85
2022/08/21 06:49:36;;;;;;;11.35;3.20;;;16.80;99.90;;;;;;6328879;22;19999;-87
2022/08/21 06:52:02;;;;;;;10.25;2.67;;;16.80;99.90;;;;;;6329803;22;20032;-90
2022/08/21 06:54:28;;;;;;;13.82;3.00;;;16.80;99.90;;;;;;6312054;22;20010;-93
2022/08/21 06:56:53;;;;;;;10.60;2.58;;;16.80;99.90;;;;;;6282408;22;20074;-94
2022/08/21 06:59:19;;;;;;;11.55;2.78;;;16.90;99.90;;;;;;6308875;22;20007;-92
2022/08/21 07:01:44;;;;;;;11.20;2.55;;;17.00;99.90;;;;;;6314058;22;20049;-93
2022/08/21 07:04:11;;;;;;;12.38;3.28;;;17.00;99.90;;;;;;6306353;22;20072;-94
2022/08/21 07:06:36;;;;;;;15.82;3.00;;;17.10;99.90;;;;;;6305854;22;19996;-94
2022/08/21 07:09:03;;;;;;;15.15;3.28;;;17.10;99.90;;;;;;6305043;22;20021;-92
2022/08/21 07:11:28;;;;;;;14.55;2.63;;;17.10;99.90;;;;;;6305106;22;20060;-88
2022/08/21 07:13:56;;;;;;;21.75;3.45;;;17.10;99.90;;;;;;6304962;22;20004;-95
2022/08/21 07:16:22;;;;;;;19.90;3.53;;;17.20;99.90;;;;;;6304958;22;20385;-93
2022/08/21 07:18:49;;;;;;;17.95;2.85;;;17.20;99.90;;;;;;6278657;22;20003;-92
2022/08/21 07:21:15;;;;;;;19.55;3.10;;;17.20;99.90;;;;;;6305254;22;20077;-94
2022/08/21 07:23:47;;;;;;;13.63;3.22;;;17.30;99.90;;;;;;6307439;22;20003;-93
2022/08/21 07:26:16;;;;;;;13.55;2.95;;;17.20;99.90;;;;;;6278141;22;20003;-84
2022/08/21 07:28:41;;;;;;;12.70;2.97;;;17.30;99.90;;;;;;6311419;22;20030;-84
2022/08/21 07:31:10;;;;;;;18.92;3.33;;;17.30;99.90;;;;;;6307797;22;20011;-93
2022/08/21 07:33:36;;;;;;;14.07;2.53;;;17.30;99.90;;;;;;6313029;22;20003;-95
2022/08/21 07:36:03;;;;;;;17.50;3.50;;;17.30;99.90;;;;;;6278270;22;20317;-93
2022/08/21 07:38:28;;;;;;;20.25;3.00;;;17.50;99.90;;;;;;6308627;22;20003;-92
2022/08/21 07:40:56;;;;;;;14.85;3.25;;;19.20;99.90;;;;;;6279755;22;20006;-93
2022/08/21 07:43:22;;;;;;;18.10;3.20;;;17.60;99.90;;;;;;6306503;22;19999;-94
2022/08/21 07:45:49;;;;;;;17.70;3.33;;;17.70;99.90;;;;;;6310669;22;19999;-93
2022/08/21 07:48:15;;;;;;;12.38;2.75;;;17.80;99.90;;;;;;6311692;22;20014;-84
2022/08/21 07:50:41;;;;;;;18.42;3.05;;;17.80;99.90;;;;;;6309028;22;20339;-94
2022/08/21 07:53:07;;;;;;;16.25;3.30;;;17.80;99.90;;;;;;6307932;22;20047;-92
2022/08/21 07:55:33;;;;;;;15.93;3.00;;;17.90;99.90;;;;;;6311030;22;20006;-90
2022/08/21 07:57:59;;;;;;;15.57;2.70;;;17.90;99.90;;;;;;6280441;22;20011;-86
2022/08/21 08:00:28;;;;;;;10.43;2.58;;;18.00;99.90;;;;;;6306153;22;19995;-94
2022/08/21 08:02:55;;;;;;;14.65;2.97;;;18.00;99.90;;;;;;6303054;22;20075;-90
2022/08/21 08:05:26;;;;;;;15.88;3.25;;;18.00;99.90;;;;;;6275499;22;20093;-90
2022/08/21 08:07:52;;;;;;;21.35;3.17;;;18.00;99.90;;;;;;6303279;22;20060;-86
2022/08/21 08:10:18;;;;;;;13.88;3.03;;;18.00;99.90;;;;;;6303604;22;20003;-90
2022/08/21 08:12:45;;;;;;;14.23;2.65;;;18.00;99.90;;;;;;6305828;22;19999;-91
2022/08/21 08:15:15;;;;;;;13.18;2.53;;;18.10;99.90;;;;;;6303930;22;20045;-93
2022/08/21 08:17:41;;;;;;;15.30;3.38;;;18.20;99.90;;;;;;6303887;22;20010;-83
2022/08/21 08:20:10;;;;;;;13.95;3.10;;;18.30;99.90;;;;;;6275504;22;20435;-89
2022/08/21 08:22:38;;;;;;;14.77;3.25;;;18.40;99.90;;;;;;6302711;22;20306;-91
2022/08/21 08:25:06;;;;;;;18.85;2.63;;;18.40;99.90;;;;;;6277284;22;20444;-89
2022/08/21 08:27:31;;;;;;;13.97;2.90;;;18.40;99.90;;;;;;6276121;22;20006;-89
2022/08/21 08:29:57;;;;;;;14.13;3.08;;;18.50;99.90;;;;;;6302908;22;20340;-90
2022/08/21 08:32:23;;;;;;;16.85;2.78;;;18.60;99.90;;;;;;6300850;22;19995;-88
2022/08/21 08:34:51;;;;;;;12.30;3.22;;;18.60;99.90;;;;;;6302118;22;20061;-86
2022/08/21 08:37:19;;;;;;;13.23;2.90;;;18.70;99.90;;;;;;6297139;22;20037;-86
2022/08/21 08:39:45;;;;;;;13.75;2.75;;;18.90;99.90;;;;;;6301183;22;19995;-86
2022/08/21 08:42:32;;;;;;;18.55;3.50;;;18.90;99.90;;;;;;6301999;22;20031;-87
2022/08/21 08:45:11;;;;;;;18.27;2.72;;;19.00;99.90;;;;;;6301555;22;20440;-83
2022/08/21 08:47:44;;;;;;;14.93;2.95;;;18.90;99.90;;;;;;6274500;22;20366;-91
2022/08/21 08:50:28;;;;;;;13.45;2.30;;;18.90;99.90;;;;;;6273792;22;20019;-86
2022/08/21 08:53:01;;;;;;;14.05;3.05;;;18.80;99.90;;;;;;6300832;22;19996;-93
2022/08/21 08:55:35;;;;;;;13.43;2.85;;;18.80;99.90;;;;;;6300681;22;20087;-91
2022/08/21 08:58:02;;;;;;;11.05;2.60;;;18.80;99.90;;;;;;6300551;22;20003;-91
2022/08/21 09:00:28;;;;;;;17.52;3.35;;;18.90;99.90;;;;;;6300538;22;20000;-88
2022/08/21 09:03:02;;;;;;;15.98;2.60;;;19.00;99.90;;;;;;6298943;22;20069;-86
2022/08/21 09:05:38;;;;;;;14.75;2.78;;;19.20;99.90;;;;;;6299872;22;20071;-90
2022/08/21 09:08:25;;;;;;;12.48;2.60;;;19.30;99.90;;;;;;6299405;22;20004;-85
2022/08/21 09:11:19;;;;;;;11.25;2.15;;;19.40;99.90;;;;;;6273849;22;20494;-86
2022/08/21 09:13:58;;;;;;;11.15;2.05;;;19.40;99.90;;;;;;6302648;22;19995;-89
2022/08/21 09:16:27;;;;;;;7.90;2.13;;;19.20;99.90;;;;;;6301846;22;20007;-89
2022/08/21 09:18:52;;;;;;;9.48;2.95;;;19.30;99.90;;;;;;6274219;22;20347;-89
2022/08/21 09:21:28;;;;;;;11.70;2.15;;;19.30;99.90;;;;;;6302697;22;20006;-85
2022/08/21 09:24:26;;;;;;;6.78;1.90;;;19.40;99.90;;;;;;6303970;22;19995;-83
2022/08/21 09:27:12;;;;;;;5.85;1.40;;;19.50;99.90;;;;;;6324946;22;19979;-85
2022/08/21 09:29:42;;;;;;;9.65;1.52;;;19.60;99.90;;;;;;6320211;22;20452;-83
2022/08/21 09:32:18;;;;;;;5.68;1.33;;;19.70;99.90;;;;;;6293051;22;20053;-90
2022/08/21 09:34:58;;;;;;;8.90;2.30;;;19.70;99.90;;;;;;6306993;22;20333;-92
2022/08/21 09:37:25;;;;;;;11.88;2.30;;;19.80;99.90;;;;;;6305923;22;19995;-92
2022/08/21 09:39:51;;;;;;;10.57;2.00;;;19.90;99.90;;;;;;6280456;22;20056;-93
2022/08/21 09:42:32;;;;;;;10.75;2.13;;;20.00;99.90;;;;;;6305687;22;20053;-93
2022/08/21 09:45:16;;;;;;;7.47;2.30;;;20.00;99.90;;;;;;6311820;22;20016;-94
2022/08/21 09:47:45;;;;;;;10.80;2.28;;;20.10;99.90;;;;;;6233228;22;1149012;-87
2022/08/21 09:50:36;;;;;;;10.82;2.40;;;20.10;99.90;;;;;;6324710;22;19999;-92
2022/08/21 09:53:03;;;;;;;6.20;2.08;;;20.10;99.90;;;;;;6297145;22;20067;-93
2022/08/21 09:58:54;;;;;;;8.52;2.13;;;20.10;99.90;;;;;;6249665;22;19987;-92
2022/08/21 10:01:44;;;;;;;10.27;2.70;;;20.20;99.90;;;;;;6329052;22;20440;-92
2022/08/21 10:04:32;;;;;;;13.18;4.07;;;20.40;99.90;;;;;;6329023;22;20023;-84
2022/08/21 10:07:20;;;;;;;7.72;1.90;;;20.50;99.90;;;;;;6287886;22;20334;-92
2022/08/21 10:09:46;;;;;;;8.10;2.05;;;20.60;99.90;;;;;;6308983;22;20011;-93
2022/08/21 10:12:25;;;;;;;6.82;1.77;;;20.60;99.90;;;;;;6277091;22;20029;-89
2022/08/21 10:15:05;;;;;;;10.50;2.42;;;20.70;99.90;;;;;;6304748;22;20031;-86
2022/08/21 10:17:59;;;;;;;10.80;2.00;;;20.70;99.90;;;;;;6306639;22;20063;-84
2022/08/21 10:20:43;;;;;;;9.57;2.17;;;20.80;99.90;;;;;;6304477;22;20007;-86
2022/08/21 10:23:39;;;;;;;9.90;2.30;;;20.80;99.90;;;;;;6278641;22;20004;-89
2022/08/21 10:26:15;;;;;;;8.43;2.10;;;20.70;99.90;;;;;;6304834;22;20003;-92
2022/08/21 10:28:59;;;;;;;9.65;2.17;;;20.70;99.90;;;;;;6304955;22;20086;-90
2022/08/21 10:31:32;;;;;;;8.10;2.00;;;20.70;99.90;;;;;;6277206;22;20012;-91
2022/08/21 10:34:16;;;;;;;6.75;2.20;;;20.70;99.90;;;;;;6304749;22;20004;-93
2022/08/21 10:36:56;;;;;;;6.18;1.90;;;20.70;99.90;;;;;;6304614;22;20302;-94
2022/08/21 10:39:33;;;;;;;7.80;2.00;;;20.80;99.90;;;;;;6305274;22;20006;-91
2022/08/21 10:42:23;;;;;;;10.63;2.40;;;20.80;99.90;;;;;;6304692;22;20014;-87
2022/08/21 10:45:01;;;;;;;10.18;2.15;;;20.80;99.90;;;;;;6277218;22;20509;-90
2022/08/21 10:47:51;;;;;;;9.23;2.10;;;20.90;99.90;;;;;;6304228;22;19999;-92
2022/08/21 10:50:30;;;;;;;7.82;2.25;;;21.00;99.90;;;;;;6304137;22;20355;-86
2022/08/21 10:53:42;;;;;;;5.47;1.70;;;21.10;99.90;;;;;;6305044;22;20006;-94
2022/08/21 10:56:20;;;;;;;12.43;2.70;;;21.10;99.90;;;;;;6180757;23;20005;-91
2022/08/21 10:59:26;;;;;;;9.05;2.10;;;21.20;99.90;;;;;;6181871;23;20001;-93
2022/08/21 11:02:03;;;;;;;8.50;1.98;;;21.40;99.90;;;;;;6267282;22;20003;-87
2022/08/21 11:04:32;;;;;;;5.28;1.60;;;21.10;99.90;;;;;;6276918;22;20011;-87
2022/08/21 11:07:25;;;;;;;5.38;1.80;;;21.00;99.90;;;;;;6304246;22;20056;-87
2022/08/21 11:09:54;;;;;;;8.93;2.15;;;21.00;99.90;;;;;;6278343;22;20094;-88
2022/08/21 11:12:31;;;;;;;6.35;2.17;;;21.00;99.90;;;;;;6305469;22;19999;-91
2022/08/21 11:15:07;;;;;;;8.07;1.85;;;20.90;99.90;;;;;;6303977;22;20003;-90
2022/08/21 11:17:57;;;;;;;6.28;2.00;;;20.90;99.90;;;;;;6304219;22;20427;-89
2022/08/21 11:20:34;;;;;;;4.82;1.67;;;20.90;99.90;;;;;;6305787;22;20060;-87
2022/08/21 11:23:23;;;;;;;5.77;2.33;;;20.90;99.90;;;;;;6304254;22;20004;-87
2022/08/21 11:26:18;;;;;;;6.47;2.80;;;20.90;99.90;;;;;;6304225;22;20052;-89
2022/08/21 11:29:17;;;;;;;6.35;1.70;;;20.90;99.90;;;;;;6301105;22;20026;-94
2022/08/21 11:31:59;;;;;;;5.63;1.80;;;20.90;99.90;;;;;;6303000;22;19995;-93
2022/08/21 11:35:03;;;;;;;7.43;1.90;;;20.80;99.90;;;;;;6304299;22;20003;-86
2022/08/21 11:37:46;;;;;;;5.93;1.90;;;20.90;99.90;;;;;;6276172;22;20462;-86
2022/08/21 11:40:34;;;;;;;6.95;2.42;;;20.90;99.90;;;;;;6304761;22;20006;-92
2022/08/21 11:43:24;;;;;;;9.32;1.95;;;21.00;99.90;;;;;;6306651;22;20010;-90
2022/08/21 11:45:59;;;;;;;11.90;1.95;;;21.00;99.90;;;;;;6321205;22;20088;-88
2022/08/21 11:48:50;;;;;;;6.88;1.75;;;20.90;99.90;;;;;;6285324;22;20015;-94
2022/08/21 11:51:22;;;;;;;4.88;1.60;;;20.90;99.90;;;;;;6295189;22;20893;-95
2022/08/21 11:54:02;;;;;;;6.22;2.10;;;21.00;99.90;;;;;;6321029;22;20003;-94
2022/08/21 11:56:35;;;;;;;6.00;1.42;;;21.00;99.90;;;;;;6321150;22;20005;-88
2022/08/21 11:59:32;;;;;;;8.63;2.20;;;20.90;99.90;;;;;;6315861;22;20006;-90
2022/08/21 12:01:59;;;;;;;9.37;2.10;;;20.90;99.90;;;;;;6321162;22;20000;-89
2022/08/21 12:04:42;;;;;;;12.65;2.33;;;20.80;99.90;;;;;;6292996;22;20035;-94
2022/08/21 12:07:36;;;;;;;8.82;2.00;;;20.30;99.90;;;;;;6332298;22;19984;-91
2022/08/21 12:10:06;;;;;;;7.63;2.00;;;20.50;99.90;;;;;;6271595;22;19995;-87
2022/08/21 12:12:36;;;;;;;5.50;2.03;;;20.90;99.90;;;;;;6299164;22;19990;-90
2022/08/21 12:15:20;;;;;;;8.95;2.13;;;20.50;99.90;;;;;;6317414;22;20025;-91
2022/08/21 12:18:02;;;;;;;6.75;1.67;;;20.50;99.90;;;;;;6286496;22;20392;-90
2022/08/21 12:20:37;;;;;;;9.82;1.98;;;20.40;99.90;;;;;;6294196;22;19991;-91
2022/08/21 12:23:42;;;;;;;11.60;2.35;;;20.30;99.90;;;;;;6325948;22;20066;-88
2022/08/21 12:26:51;;;;;;;6.10;1.90;;;20.20;99.90;;;;;;6320313;22;19999;-90
2022/08/21 12:29:31;;;;;;;5.65;1.92;;;20.20;99.90;;;;;;6298281;22;20022;-91
2022/08/21 12:32:20;;;;;;;8.18;2.00;;;20.10;99.90;;;;;;6291505;22;19987;-93
2022/08/21 12:35:11;;;;;;;6.35;2.10;;;20.10;99.90;;;;;;6295840;22;20061;-94
2022/08/21 12:37:43;;;;;;;4.90;1.95;;;20.10;99.90;;;;;;6309019;22;20002;-94
2022/08/21 12:40:43;;;;;;;6.78;2.05;;;20.00;99.90;;;;;;6312932;22;20458;-93
2022/08/21 12:43:24;;;;;;;5.50;1.88;;;20.30;99.90;;;;;;6324237;22;20003;-91
2022/08/21 12:45:53;;;;;;;7.20;1.88;;;20.40;99.90;;;;;;6300604;22;20038;-90
2022/08/21 12:49:07;;;;;;;6.45;2.20;;;20.00;99.90;;;;;;6300125;22;20063;-91
2022/08/21 12:51:43;;;;;;;8.63;1.92;;;22.00;99.90;;;;;;6250322;22;20014;-90
2022/08/21 12:54:09;;;;;;;6.97;1.88;;;20.10;99.90;;;;;;6303569;22;20025;-87
2022/08/21 12:56:38;;;;;;;5.65;1.85;;;20.20;99.90;;;;;;6306286;22;20053;-94
2022/08/21 12:59:11;;;;;;;4.25;1.48;;;20.10;99.90;;;;;;6302961;22;19995;-92
2022/08/21 13:01:51;;;;;;;7.20;1.70;;;20.20;99.90;;;;;;6302658;22;20013;-91
2022/08/21 13:04:21;;;;;;;4.00;1.40;;;20.20;99.90;;;;;;6302600;22;20503;-85
2022/08/21 13:06:51;;;;;;;4.88;1.65;;;20.40;99.90;;;;;;6303339;22;20049;-91
2022/08/21 13:09:22;;;;;;;4.05;1.60;;;20.50;99.90;;;;;;6301181;22;20038;-85
2022/08/21 13:11:48;;;;;;;4.53;1.58;;;20.60;99.90;;;;;;6302268;22;20497;-87